Time;durP1;ratioP1;P1;durP2;ratioP2;P2;SDS_P1;SDS_P2;PMS_P1;PMS_P2;Temp;Humidity;BMP_temperature;BMP_pressure;BME280_temperature;BME280_humidity;BME280_pressure;Samples;Min_cycle;Max_cycle;Signal;HPM_P1;HPM_P2
2021/03/16 00:01:18;;;;;;;2.83;2.05;;;4.20;99.90;;;;;;5025661;28;20732;-76
2021/03/16 00:03:44;;;;;;;5.15;2.75;;;4.20;99.90;;;;;;5022881;28;20197;-76
2021/03/16 00:06:10;;;;;;;3.75;2.35;;;4.10;99.90;;;;;;5022118;28;20612;-76
2021/03/16 00:08:37;;;;;;;5.03;2.60;;;4.20;99.90;;;;;;5022084;28;20267;-76
2021/03/16 00:11:04;;;;;;;3.95;2.25;;;4.20;99.90;;;;;;5022903;28;20233;-76
2021/03/16 00:13:30;;;;;;;6.10;3.70;;;4.20;99.90;;;;;;5015331;28;20309;-76
2021/03/16 00:15:57;;;;;;;5.40;2.35;;;4.20;99.90;;;;;;5021060;28;20203;-76
2021/03/16 00:18:23;;;;;;;7.18;2.30;;;4.20;99.90;;;;;;5010681;28;20199;-76
2021/03/16 00:20:51;;;;;;;7.50;2.35;;;4.10;99.90;;;;;;5010670;28;20217;-75
2021/03/16 00:23:19;;;;;;;3.15;2.42;;;4.20;99.90;;;;;;5030290;28;20194;-76
2021/03/16 00:25:46;;;;;;;3.95;2.60;;;4.20;99.90;;;;;;5030225;28;20267;-76
2021/03/16 00:28:15;;;;;;;4.45;2.78;;;4.20;99.90;;;;;;5031301;28;20226;-75
2021/03/16 00:30:44;;;;;;;7.65;3.10;;;4.20;99.90;;;;;;5030443;28;20213;-75
2021/03/16 00:33:10;;;;;;;4.38;2.78;;;4.20;99.90;;;;;;5029942;28;20260;-75
2021/03/16 00:35:36;;;;;;;4.63;2.50;;;4.20;99.90;;;;;;5027065;28;20199;-75
2021/03/16 00:38:03;;;;;;;6.00;2.53;;;4.20;99.90;;;;;;5027087;28;20263;-75
2021/03/16 00:40:29;;;;;;;2.47;2.00;;;4.20;99.90;;;;;;5127729;22;20228;-72
2021/03/16 00:42:56;;;;;;;4.43;2.58;;;4.20;99.90;;;;;;5069347;28;20201;-72
2021/03/16 00:45:22;;;;;;;5.40;2.47;;;4.20;99.90;;;;;;5069117;28;20208;-72
2021/03/16 00:47:48;;;;;;;3.13;2.83;;;4.10;99.90;;;;;;5070664;28;20204;-72
2021/03/16 00:50:15;;;;;;;3.95;2.80;;;4.10;99.90;;;;;;5069401;28;20204;-73
2021/03/16 00:52:41;;;;;;;4.30;3.25;;;4.00;99.90;;;;;;5071174;28;20224;-73
2021/03/16 00:55:08;;;;;;;4.05;2.65;;;3.90;99.90;;;;;;5071067;28;21038;-73
2021/03/16 00:57:34;;;;;;;3.33;2.53;;;3.90;99.90;;;;;;5070708;28;20200;-73
2021/03/16 01:00:01;;;;;;;6.25;3.17;;;3.90;99.90;;;;;;5070153;28;20208;-73
2021/03/16 01:02:27;;;;;;;7.03;2.30;;;3.90;99.90;;;;;;5070900;28;20543;-72
2021/03/16 01:04:54;;;;;;;3.47;2.13;;;3.90;99.90;;;;;;5070906;28;20208;-72
2021/03/16 01:07:20;;;;;;;3.28;2.28;;;3.80;99.90;;;;;;5070927;28;20201;-72
2021/03/16 01:09:46;;;;;;;4.25;2.05;;;3.80;99.90;;;;;;5069531;28;20200;-71
2021/03/16 01:12:12;;;;;;;3.85;2.28;;;3.80;99.90;;;;;;5067862;28;20605;-71
2021/03/16 01:14:38;;;;;;;3.00;2.20;;;3.90;99.90;;;;;;5070029;28;20231;-71
2021/03/16 01:17:06;;;;;;;3.00;2.70;;;3.90;99.90;;;;;;5069716;28;20207;-72
2021/03/16 01:19:32;;;;;;;8.73;3.50;;;3.90;99.90;;;;;;5068492;28;20208;-70
2021/03/16 01:21:58;;;;;;;3.35;2.45;;;3.90;99.90;;;;;;5070152;28;20228;-69
2021/03/16 01:24:24;;;;;;;2.40;2.20;;;3.90;99.90;;;;;;5070354;28;20204;-69
2021/03/16 01:26:51;;;;;;;5.60;2.58;;;3.90;99.90;;;;;;5069261;28;20223;-70
2021/03/16 01:29:17;;;;;;;3.65;2.30;;;3.90;99.90;;;;;;5070212;28;20204;-71
2021/03/16 01:31:43;;;;;;;3.42;2.80;;;4.00;99.90;;;;;;5049522;28;20228;-69
2021/03/16 01:34:10;;;;;;;4.78;2.83;;;3.90;99.90;;;;;;5046993;28;20224;-71
2021/03/16 01:36:37;;;;;;;5.57;2.95;;;3.90;99.90;;;;;;5048996;28;20213;-72
2021/03/16 01:39:04;;;;;;;3.25;2.42;;;3.90;99.90;;;;;;5047746;28;20216;-72
2021/03/16 01:41:30;;;;;;;3.88;2.85;;;3.90;99.90;;;;;;5050416;28;20221;-72
2021/03/16 01:43:56;;;;;;;2.95;2.38;;;3.90;99.90;;;;;;5049943;28;20205;-71
2021/03/16 01:46:23;;;;;;;3.17;2.60;;;3.90;99.90;;;;;;5050257;28;20204;-71
2021/03/16 01:48:50;;;;;;;5.07;2.60;;;3.90;99.90;;;;;;5049024;28;20691;-70
2021/03/16 01:51:19;;;;;;;3.10;2.80;;;3.90;99.90;;;;;;5049284;28;20236;-71
2021/03/16 01:53:45;;;;;;;4.10;2.50;;;3.90;99.90;;;;;;5049662;28;20719;-71
2021/03/16 01:56:14;;;;;;;8.32;2.80;;;3.90;99.90;;;;;;5051236;28;20292;-71
2021/03/16 01:58:42;;;;;;;4.00;2.65;;;3.80;99.90;;;;;;5069467;28;20200;-71
2021/03/16 02:01:09;;;;;;;4.68;2.97;;;3.80;99.90;;;;;;5069812;28;20248;-72
2021/03/16 02:03:35;;;;;;;5.45;3.65;;;3.80;99.90;;;;;;5069504;28;20196;-71
2021/03/16 02:06:04;;;;;;;4.85;2.85;;;3.80;99.90;;;;;;5069727;28;20264;-70
2021/03/16 02:08:40;;;;;;;5.25;2.92;;;3.80;99.90;;;;;;5069257;28;21028;-71
2021/03/16 02:11:15;;;;;;;6.03;2.88;;;3.90;99.90;;;;;;5068978;28;20231;-71
2021/03/16 02:13:48;;;;;;;3.75;2.65;;;3.90;99.90;;;;;;5068909;28;20270;-71
2021/03/16 02:16:18;;;;;;;5.57;3.17;;;3.80;99.90;;;;;;5069734;28;20326;-72
2021/03/16 02:18:48;;;;;;;5.22;3.35;;;3.80;99.90;;;;;;5068871;28;20666;-71
2021/03/16 02:21:19;;;;;;;7.05;3.90;;;3.80;99.90;;;;;;5068757;28;20224;-69
2021/03/16 02:24:33;;;;;;;5.32;2.80;;;3.80;99.90;;;;;;5068976;28;20219;-71
2021/03/16 02:27:10;;;;;;;4.18;2.85;;;3.80;99.90;;;;;;5009763;28;20208;-70
2021/03/16 02:29:42;;;;;;;2.92;2.50;;;3.80;99.90;;;;;;5068600;28;20200;-72
2021/03/16 02:32:12;;;;;;;4.80;2.70;;;3.80;99.90;;;;;;5068802;28;20244;-72
2021/03/16 02:34:42;;;;;;;4.45;2.65;;;3.80;99.90;;;;;;5068763;28;20224;-72
2021/03/16 02:37:11;;;;;;;4.38;3.47;;;3.80;99.90;;;;;;5068241;28;20200;-70
2021/03/16 02:39:39;;;;;;;4.25;2.88;;;3.80;99.90;;;;;;5068487;28;20216;-72
2021/03/16 02:42:09;;;;;;;4.10;2.78;;;3.80;99.90;;;;;;5068893;28;20216;-71
2021/03/16 02:44:37;;;;;;;4.20;3.10;;;3.80;99.90;;;;;;5068815;28;20614;-70
2021/03/16 02:47:05;;;;;;;7.20;2.92;;;3.80;99.90;;;;;;5068944;28;20204;-71
2021/03/16 02:49:33;;;;;;;4.25;3.20;;;3.70;99.90;;;;;;5067966;28;20196;-71
2021/03/16 02:52:02;;;;;;;3.50;3.00;;;3.70;99.90;;;;;;5068111;28;20235;-71
2021/03/16 02:54:29;;;;;;;4.85;2.72;;;3.70;99.90;;;;;;5068702;28;20228;-71
2021/03/16 02:56:56;;;;;;;3.88;2.90;;;3.70;99.90;;;;;;5068212;28;20204;-69
2021/03/16 02:59:24;;;;;;;3.20;2.55;;;3.70;99.90;;;;;;5068224;28;20207;-71
2021/03/16 03:01:52;;;;;;;3.42;2.80;;;3.70;99.90;;;;;;5067988;28;20235;-70
2021/03/16 03:04:20;;;;;;;4.00;2.45;;;3.70;99.90;;;;;;5068597;28;20203;-71
2021/03/16 03:06:47;;;;;;;4.82;2.13;;;3.60;99.90;;;;;;5068166;28;20252;-71
2021/03/16 03:09:14;;;;;;;7.63;3.28;;;3.70;99.90;;;;;;5067963;28;20196;-71
2021/03/16 03:11:41;;;;;;;10.23;3.60;;;3.70;99.90;;;;;;5068492;28;20290;-71
2021/03/16 03:14:09;;;;;;;5.35;2.70;;;3.70;99.90;;;;;;5067844;28;20238;-71
2021/03/16 03:16:35;;;;;;;4.57;2.55;;;3.70;99.90;;;;;;5068884;28;20196;-71
2021/03/16 03:19:01;;;;;;;5.68;2.90;;;3.60;99.90;;;;;;5067545;28;20257;-71
2021/03/16 03:21:33;;;;;;;7.78;3.03;;;3.60;99.90;;;;;;5068171;28;20220;-71
2021/03/16 03:24:04;;;;;;;5.03;3.22;;;3.60;99.90;;;;;;5067706;28;20212;-71
2021/03/16 03:26:36;;;;;;;2.60;2.28;;;3.60;99.90;;;;;;5068198;28;20200;-71
2021/03/16 03:29:03;;;;;;;4.85;2.47;;;3.60;99.90;;;;;;5067518;28;20204;-71
2021/03/16 03:31:32;;;;;;;2.35;2.15;;;3.60;99.90;;;;;;5068095;28;20224;-72
2021/03/16 03:33:59;;;;;;;6.72;2.50;;;3.60;99.90;;;;;;5067563;28;20251;-70
2021/03/16 03:36:26;;;;;;;6.00;2.45;;;3.60;99.90;;;;;;5068602;28;20245;-71
2021/03/16 03:38:54;;;;;;;7.03;2.90;;;3.50;99.90;;;;;;5067799;28;20203;-70
2021/03/16 03:41:25;;;;;;;5.20;2.45;;;3.50;99.90;;;;;;5068787;28;20224;-71
2021/03/16 03:43:52;;;;;;;4.03;2.75;;;3.50;99.90;;;;;;5068334;28;20679;-70
2021/03/16 03:46:21;;;;;;;5.50;3.17;;;3.50;99.90;;;;;;5068920;28;20208;-71
2021/03/16 03:48:48;;;;;;;2.83;2.63;;;3.60;99.90;;;;;;5070160;28;20216;-71
2021/03/16 03:51:17;;;;;;;4.10;2.90;;;3.60;99.90;;;;;;5072185;28;20911;-72
2021/03/16 03:53:46;;;;;;;4.25;2.75;;;3.50;99.90;;;;;;5072471;28;20231;-71
2021/03/16 03:56:14;;;;;;;5.65;2.83;;;3.50;99.90;;;;;;5072699;28;20215;-71
2021/03/16 03:58:41;;;;;;;2.97;2.10;;;3.50;99.90;;;;;;5072506;28;20215;-71
2021/03/16 04:01:08;;;;;;;4.65;2.33;;;3.40;99.90;;;;;;5072516;28;20220;-70
2021/03/16 04:03:36;;;;;;;5.70;2.70;;;3.50;99.90;;;;;;5072994;28;20212;-71
2021/03/16 04:06:03;;;;;;;3.50;2.00;;;3.50;99.90;;;;;;5072799;28;20257;-69
2021/03/16 04:08:30;;;;;;;4.10;2.60;;;3.50;99.90;;;;;;5072726;28;20207;-71
2021/03/16 04:10:59;;;;;;;5.25;2.22;;;3.40;99.90;;;;;;5072355;28;20220;-69
2021/03/16 04:13:27;;;;;;;4.68;2.28;;;3.40;99.90;;;;;;5072682;28;20224;-72
2021/03/16 04:15:53;;;;;;;7.78;2.20;;;3.40;99.90;;;;;;5095659;28;20189;-69
2021/03/16 04:18:20;;;;;;;3.95;2.50;;;3.40;99.90;;;;;;5097435;28;20226;-69
2021/03/16 04:20:48;;;;;;;6.55;2.28;;;3.40;99.90;;;;;;5090113;28;20580;-71
2021/03/16 04:23:14;;;;;;;8.38;3.42;;;3.40;99.90;;;;;;5072741;28;20246;-71
2021/03/16 04:25:40;;;;;;;5.05;2.35;;;3.40;99.90;;;;;;5071646;28;20200;-72
2021/03/16 04:28:07;;;;;;;4.57;4.07;;;3.40;99.90;;;;;;5072225;28;20204;-72
2021/03/16 04:30:34;;;;;;;8.85;2.25;;;3.40;99.90;;;;;;5071262;28;20220;-72
2021/03/16 04:33:00;;;;;;;5.75;2.40;;;3.40;99.90;;;;;;5072016;28;20220;-71
2021/03/16 04:35:27;;;;;;;3.90;2.60;;;3.40;99.90;;;;;;5071959;28;20203;-71
2021/03/16 04:37:53;;;;;;;4.57;2.40;;;3.40;99.90;;;;;;5070301;28;20570;-70
2021/03/16 04:40:20;;;;;;;5.25;2.10;;;3.40;99.90;;;;;;5071052;28;20219;-71
2021/03/16 04:42:46;;;;;;;2.58;2.35;;;3.40;99.90;;;;;;5071972;28;20205;-71
2021/03/16 04:45:14;;;;;;;6.20;2.40;;;3.40;99.90;;;;;;5072081;28;20208;-70
2021/03/16 04:47:41;;;;;;;3.55;2.10;;;3.40;99.90;;;;;;5072008;28;20222;-71
2021/03/16 04:50:08;;;;;;;3.75;2.13;;;3.40;99.90;;;;;;5070907;28;20208;-71
2021/03/16 04:52:34;;;;;;;3.28;2.25;;;3.40;99.90;;;;;;5071079;28;20221;-71
2021/03/16 04:55:01;;;;;;;3.38;2.00;;;3.40;99.90;;;;;;5071621;28;20224;-70
2021/03/16 04:57:27;;;;;;;9.25;2.35;;;3.50;99.90;;;;;;5071959;28;20212;-72
2021/03/16 04:59:53;;;;;;;3.55;1.70;;;3.40;99.90;;;;;;5069857;28;20211;-71
2021/03/16 05:02:19;;;;;;;5.68;2.30;;;3.40;99.90;;;;;;5071322;28;20221;-71
2021/03/16 05:04:46;;;;;;;2.90;1.95;;;3.30;99.90;;;;;;5071421;28;20200;-71
2021/03/16 05:07:13;;;;;;;4.25;2.28;;;3.40;99.90;;;;;;5071408;28;20214;-69
2021/03/16 05:09:39;;;;;;;2.75;1.65;;;3.30;99.90;;;;;;5071055;28;20200;-70
2021/03/16 05:12:06;;;;;;;3.95;2.75;;;3.30;99.90;;;;;;5071557;28;20224;-71
2021/03/16 05:14:32;;;;;;;5.47;2.38;;;3.30;99.90;;;;;;5059373;28;20232;-71
2021/03/16 05:16:59;;;;;;;4.00;2.10;;;3.30;99.90;;;;;;5051167;28;20216;-72
2021/03/16 05:19:25;;;;;;;2.85;2.10;;;3.30;99.90;;;;;;5050649;28;20202;-72
2021/03/16 05:21:52;;;;;;;6.07;2.22;;;3.40;99.90;;;;;;5050855;28;20791;-71
2021/03/16 05:24:18;;;;;;;4.15;1.90;;;3.40;99.90;;;;;;5051132;28;20580;-69
2021/03/16 05:26:44;;;;;;;3.42;1.65;;;3.40;99.90;;;;;;5051019;28;20216;-68
2021/03/16 05:29:10;;;;;;;5.10;2.30;;;3.40;99.90;;;;;;5049189;28;20455;-68
2021/03/16 05:31:37;;;;;;;4.00;2.42;;;3.40;99.90;;;;;;5049153;28;20225;-67
2021/03/16 05:34:03;;;;;;;4.13;2.20;;;3.40;99.90;;;;;;5049698;28;20279;-68
2021/03/16 05:36:29;;;;;;;2.60;2.17;;;3.50;99.90;;;;;;5050902;28;20205;-69
2021/03/16 05:38:56;;;;;;;3.70;2.35;;;3.50;99.90;;;;;;5050096;28;20228;-69
2021/03/16 05:41:23;;;;;;;4.28;2.08;;;3.50;99.90;;;;;;5050579;28;20225;-69
2021/03/16 05:43:50;;;;;;;4.07;1.95;;;3.50;99.90;;;;;;5050276;28;20224;-69
2021/03/16 05:46:17;;;;;;;2.08;1.80;;;3.60;99.90;;;;;;5050868;28;20259;-69
2021/03/16 05:48:50;;;;;;;4.55;2.03;;;3.50;99.90;;;;;;5050078;28;20201;-69
2021/03/16 05:51:17;;;;;;;6.85;1.90;;;3.60;99.90;;;;;;5050561;28;20224;-69
2021/03/16 05:53:47;;;;;;;5.00;2.38;;;3.60;99.90;;;;;;5049950;28;20271;-70
2021/03/16 05:56:14;;;;;;;10.35;2.53;;;3.60;99.90;;;;;;5051173;28;20205;-69
2021/03/16 05:58:41;;;;;;;4.90;2.90;;;3.60;99.90;;;;;;5049883;28;20201;-69
2021/03/16 06:01:07;;;;;;;9.38;3.00;;;3.70;99.90;;;;;;5049884;28;20638;-68
2021/03/16 06:03:34;;;;;;;4.82;1.90;;;3.70;99.90;;;;;;5051202;28;20326;-70
2021/03/16 06:06:00;;;;;;;4.20;2.20;;;3.60;99.90;;;;;;5049900;28;20205;-70
2021/03/16 06:08:26;;;;;;;4.30;2.28;;;3.60;99.90;;;;;;5050310;28;20228;-70
2021/03/16 06:10:53;;;;;;;5.60;2.22;;;3.60;99.90;;;;;;5048877;28;20225;-70
2021/03/16 06:13:20;;;;;;;4.78;1.90;;;3.70;99.90;;;;;;5049412;28;21206;-69
2021/03/16 06:15:46;;;;;;;6.45;2.25;;;3.70;99.90;;;;;;5050148;28;20559;-70
2021/03/16 06:18:23;;;;;;;8.55;2.45;;;3.60;99.90;;;;;;5049908;28;20201;-70
2021/03/16 06:20:57;;;;;;;4.43;2.17;;;3.70;99.90;;;;;;5049045;28;20773;-68
2021/03/16 06:23:30;;;;;;;2.55;2.05;;;3.70;99.90;;;;;;5049626;28;20204;-69
2021/03/16 06:25:56;;;;;;;5.35;1.83;;;3.70;99.90;;;;;;5049735;28;20218;-68
2021/03/16 06:28:31;;;;;;;5.82;2.25;;;3.70;99.90;;;;;;5049744;28;20205;-68
2021/03/16 06:30:57;;;;;;;6.60;2.35;;;3.70;99.90;;;;;;5049055;28;20277;-69
2021/03/16 06:33:27;;;;;;;3.92;1.83;;;3.70;99.90;;;;;;5049789;28;20218;-70
2021/03/16 06:35:56;;;;;;;4.88;3.13;;;3.80;99.90;;;;;;5049634;28;20682;-69
2021/03/16 06:38:23;;;;;;;7.28;2.95;;;3.70;99.90;;;;;;5049891;28;20208;-69
2021/03/16 06:40:49;;;;;;;9.85;2.75;;;3.80;99.90;;;;;;5059187;22;20216;-69
2021/03/16 06:43:15;;;;;;;7.90;3.97;;;3.70;99.90;;;;;;5028974;28;20221;-68
2021/03/16 06:45:42;;;;;;;15.15;3.10;;;3.70;99.90;;;;;;5028387;28;20727;-70
2021/03/16 06:48:16;;;;;;;5.10;2.28;;;3.70;99.90;;;;;;5029053;28;20202;-71
2021/03/16 06:50:43;;;;;;;3.90;2.30;;;3.70;99.90;;;;;;5028204;28;20728;-71
2021/03/16 06:53:26;;;;;;;6.13;2.65;;;3.70;99.90;;;;;;5028283;28;20213;-71
2021/03/16 06:55:53;;;;;;;6.28;2.10;;;3.80;99.90;;;;;;5028882;28;20224;-71
2021/03/16 06:58:23;;;;;;;8.07;2.00;;;3.70;99.90;;;;;;5028827;28;20209;-70
2021/03/16 07:00:50;;;;;;;8.82;2.08;;;3.80;99.90;;;;;;5027841;28;20251;-69
2021/03/16 07:03:16;;;;;;;5.75;2.53;;;3.80;99.90;;;;;;5028383;28;20194;-71
2021/03/16 07:05:44;;;;;;;3.88;2.40;;;3.70;99.90;;;;;;5028250;28;20311;-70
2021/03/16 07:08:13;;;;;;;5.50;2.60;;;3.80;99.90;;;;;;5028687;28;20235;-70
2021/03/16 07:10:41;;;;;;;5.20;2.45;;;3.80;99.90;;;;;;5027350;28;20221;-70
2021/03/16 07:13:10;;;;;;;4.22;2.70;;;3.80;99.90;;;;;;5028523;28;20640;-70
2021/03/16 07:15:38;;;;;;;4.57;2.25;;;3.80;99.90;;;;;;5028357;28;20613;-70
2021/03/16 07:18:09;;;;;;;4.28;2.45;;;3.80;99.90;;;;;;5028516;28;20614;-70
2021/03/16 07:20:37;;;;;;;4.60;2.08;;;3.80;99.90;;;;;;5027770;28;20229;-70
2021/03/16 07:23:07;;;;;;;5.05;2.60;;;3.80;99.90;;;;;;5027737;28;20198;-70
2021/03/16 07:25:34;;;;;;;6.47;2.60;;;3.90;99.90;;;;;;5028412;28;20202;-70
2021/03/16 07:28:04;;;;;;;5.18;2.53;;;3.80;99.90;;;;;;5028279;28;20218;-70
2021/03/16 07:30:30;;;;;;;9.10;2.60;;;3.90;99.90;;;;;;5027801;28;20716;-70
2021/03/16 07:32:58;;;;;;;4.38;2.38;;;3.90;99.90;;;;;;5028184;28;20489;-70
2021/03/16 07:35:27;;;;;;;3.70;2.40;;;3.80;99.90;;;;;;5028128;28;20298;-70
2021/03/16 07:37:55;;;;;;;4.10;2.30;;;3.80;99.90;;;;;;5028069;28;20311;-69
2021/03/16 07:40:22;;;;;;;8.05;2.70;;;3.80;99.90;;;;;;5027049;28;20237;-71
2021/03/16 07:42:49;;;;;;;7.68;2.50;;;3.80;99.90;;;;;;5027678;28;20244;-70
2021/03/16 07:45:24;;;;;;;7.50;2.20;;;3.80;99.90;;;;;;5028042;28;20209;-69
2021/03/16 07:47:50;;;;;;;7.75;2.53;;;3.80;99.90;;;;;;5027920;28;20201;-70
2021/03/16 07:50:25;;;;;;;3.80;2.30;;;3.80;99.90;;;;;;5026838;28;20225;-70
2021/03/16 07:52:52;;;;;;;9.27;2.65;;;4.00;99.90;;;;;;5027928;28;20228;-70
2021/03/16 07:55:29;;;;;;;5.65;2.40;;;4.00;99.90;;;;;;5028619;28;20245;-70
2021/03/16 07:58:06;;;;;;;5.18;2.20;;;4.20;99.90;;;;;;5027580;28;20205;-69
2021/03/16 08:00:32;;;;;;;7.35;2.78;;;4.40;99.90;;;;;;5027265;28;20888;-70
2021/03/16 08:03:00;;;;;;;3.90;2.33;;;4.50;99.90;;;;;;5027726;28;20272;-70
2021/03/16 08:05:27;;;;;;;2.65;2.05;;;4.60;99.90;;;;;;5028189;28;20580;-70
2021/03/16 08:07:54;;;;;;;6.35;2.88;;;4.90;99.90;;;;;;5027894;28;20216;-71
2021/03/16 08:10:28;;;;;;;5.95;2.58;;;5.10;99.90;;;;;;5027442;28;20206;-69
2021/03/16 08:13:02;;;;;;;5.80;2.40;;;5.30;99.90;;;;;;5028181;28;20285;-69
2021/03/16 08:15:39;;;;;;;5.40;2.25;;;5.40;99.90;;;;;;5027723;28;20255;-68
2021/03/16 08:18:06;;;;;;;4.85;2.58;;;5.60;99.90;;;;;;5027706;28;20213;-70
2021/03/16 08:20:32;;;;;;;4.28;2.70;;;5.80;99.90;;;;;;5026606;28;21862;-69
2021/03/16 08:23:11;;;;;;;4.55;2.50;;;5.80;99.90;;;;;;5027465;28;20210;-69
2021/03/16 08:25:37;;;;;;;4.85;2.25;;;5.80;99.90;;;;;;5027362;28;20209;-70
2021/03/16 08:28:08;;;;;;;9.00;3.22;;;5.70;99.90;;;;;;5027996;28;20205;-69
2021/03/16 08:30:36;;;;;;;6.38;2.70;;;5.60;99.90;;;;;;5026931;28;20226;-70
2021/03/16 08:33:09;;;;;;;4.30;2.65;;;5.50;99.90;;;;;;5027362;28;20210;-70
2021/03/16 08:35:40;;;;;;;7.22;3.00;;;5.40;99.90;;;;;;5029273;28;20205;-70
2021/03/16 08:38:08;;;;;;;6.68;2.78;;;5.30;99.90;;;;;;5031673;28;20198;-70
2021/03/16 08:40:34;;;;;;;4.07;2.65;;;5.30;99.90;;;;;;5031659;28;20222;-69
2021/03/16 08:43:00;;;;;;;4.47;2.80;;;5.40;99.90;;;;;;5031839;28;20208;-69
2021/03/16 08:45:28;;;;;;;4.47;2.50;;;5.30;99.90;;;;;;5031704;28;20198;-69
2021/03/16 08:47:54;;;;;;;9.52;2.80;;;5.30;99.90;;;;;;5030910;28;20201;-70
2021/03/16 08:50:23;;;;;;;7.13;3.33;;;5.30;99.90;;;;;;5031214;28;20202;-70
2021/03/16 08:52:49;;;;;;;4.65;3.10;;;5.20;99.90;;;;;;5032190;28;20439;-70
2021/03/16 08:55:24;;;;;;;6.38;2.67;;;5.20;99.90;;;;;;5031400;28;20232;-70
2021/03/16 08:57:52;;;;;;;6.47;2.58;;;5.20;99.90;;;;;;5031428;28;20684;-70
2021/03/16 09:00:22;;;;;;;6.25;2.80;;;5.10;99.90;;;;;;5030532;28;20210;-70
2021/03/16 09:02:48;;;;;;;3.38;2.92;;;5.10;99.90;;;;;;5031681;28;20201;-70
2021/03/16 09:05:20;;;;;;;5.90;3.25;;;5.00;99.90;;;;;;5031691;28;20201;-69
2021/03/16 09:07:47;;;;;;;7.57;3.10;;;5.00;99.90;;;;;;5031192;28;20673;-70
2021/03/16 09:10:16;;;;;;;3.60;2.70;;;5.00;99.90;;;;;;5031228;28;20205;-70
2021/03/16 09:12:46;;;;;;;5.95;2.88;;;5.10;99.90;;;;;;5031920;28;20669;-69
2021/03/16 09:15:14;;;;;;;7.88;2.97;;;5.30;99.90;;;;;;5031769;28;20222;-69
2021/03/16 09:17:42;;;;;;;5.22;2.35;;;5.30;99.90;;;;;;5031120;28;20213;-70
2021/03/16 09:20:11;;;;;;;8.98;3.70;;;5.40;99.90;;;;;;5030364;28;20210;-70
2021/03/16 09:22:38;;;;;;;5.57;2.95;;;5.40;99.90;;;;;;5030804;28;20221;-70
2021/03/16 09:25:05;;;;;;;4.90;3.22;;;5.40;99.90;;;;;;5030916;28;20208;-70
2021/03/16 09:27:33;;;;;;;4.45;3.30;;;5.30;99.90;;;;;;5030899;28;20198;-69
2021/03/16 09:30:00;;;;;;;8.68;3.13;;;5.20;99.90;;;;;;5029763;28;20255;-69
2021/03/16 09:32:27;;;;;;;6.60;3.10;;;5.20;99.90;;;;;;5031100;28;20225;-70
2021/03/16 09:34:54;;;;;;;8.18;2.90;;;5.20;99.90;;;;;;5030488;28;20436;-70
2021/03/16 09:37:20;;;;;;;4.95;3.25;;;5.20;99.90;;;;;;5030226;28;20209;-69
2021/03/16 09:39:54;;;;;;;6.97;4.25;;;5.10;99.90;;;;;;5029578;28;20202;-69
2021/03/16 09:42:32;;;;;;;3.75;2.72;;;5.10;99.90;;;;;;5030202;28;20229;-70
2021/03/16 09:44:59;;;;;;;3.38;3.08;;;5.00;99.90;;;;;;5030751;28;20209;-69
2021/03/16 09:47:27;;;;;;;5.35;2.92;;;4.90;99.90;;;;;;5029956;28;20213;-70
2021/03/16 09:50:06;;;;;;;9.63;3.58;;;4.70;99.90;;;;;;5025336;28;20198;-70
2021/03/16 09:52:32;;;;;;;7.82;3.50;;;4.60;99.90;;;;;;5030312;28;20691;-70
2021/03/16 09:54:58;;;;;;;9.52;5.25;;;4.50;99.90;;;;;;5029971;28;20229;-70
2021/03/16 09:57:31;;;;;;;5.47;3.38;;;4.50;99.90;;;;;;5030150;28;20430;-70
2021/03/16 09:59:58;;;;;;;7.60;3.45;;;4.40;99.90;;;;;;5029292;28;20628;-69
2021/03/16 10:02:33;;;;;;;4.55;3.45;;;4.50;99.90;;;;;;5030192;28;20240;-70
2021/03/16 10:05:05;;;;;;;5.63;3.92;;;4.70;99.90;;;;;;5030490;28;20694;-70
2021/03/16 10:07:33;;;;;;;6.68;3.30;;;4.90;99.90;;;;;;5030909;28;20202;-70
2021/03/16 10:10:07;;;;;;;5.93;3.47;;;5.10;99.90;;;;;;5030061;28;20217;-70
2021/03/16 10:12:34;;;;;;;7.43;3.92;;;5.30;99.90;;;;;;5030155;28;20232;-70
2021/03/16 10:15:00;;;;;;;7.70;3.30;;;5.50;99.90;;;;;;5030857;28;20592;-70
2021/03/16 10:17:28;;;;;;;6.80;3.92;;;5.60;99.90;;;;;;5030893;28;20224;-70
2021/03/16 10:19:56;;;;;;;6.75;2.95;;;5.60;99.90;;;;;;5030314;28;20283;-70
2021/03/16 10:22:27;;;;;;;6.53;3.80;;;5.50;99.90;;;;;;5030221;28;20320;-70
2021/03/16 10:24:55;;;;;;;10.85;3.45;;;5.50;99.90;;;;;;5030720;28;20300;-70
2021/03/16 10:27:29;;;;;;;7.40;3.80;;;5.50;99.90;;;;;;5030608;28;20237;-70
2021/03/16 10:29:56;;;;;;;5.40;3.33;;;5.40;99.90;;;;;;5029606;28;20202;-70
2021/03/16 10:32:22;;;;;;;3.55;3.25;;;5.20;99.90;;;;;;5030560;28;20225;-70
2021/03/16 10:34:49;;;;;;;8.13;3.67;;;5.10;99.90;;;;;;5030018;28;20591;-70
2021/03/16 10:37:20;;;;;;;6.88;3.53;;;5.10;99.90;;;;;;5030813;28;20202;-70
2021/03/16 10:39:47;;;;;;;4.78;3.17;;;5.00;99.90;;;;;;5029047;28;20209;-70
2021/03/16 10:42:14;;;;;;;5.53;3.70;;;5.00;99.90;;;;;;5029202;28;20720;-71
2021/03/16 10:44:41;;;;;;;5.18;3.10;;;5.10;99.90;;;;;;5029129;28;20363;-70
2021/03/16 10:47:07;;;;;;;4.88;3.35;;;5.10;99.90;;;;;;5028683;28;20201;-69
2021/03/16 10:49:33;;;;;;;5.55;3.60;;;5.30;99.90;;;;;;5028785;28;20202;-70
2021/03/16 10:52:00;;;;;;;5.70;3.25;;;5.50;99.90;;;;;;5028861;28;20623;-70
2021/03/16 10:54:27;;;;;;;6.80;3.53;;;5.80;99.90;;;;;;5028670;28;20255;-70
2021/03/16 10:56:54;;;;;;;6.22;3.47;;;6.00;99.90;;;;;;5028967;28;20212;-69
2021/03/16 10:59:21;;;;;;;7.50;3.85;;;6.40;99.90;;;;;;5027448;28;20221;-70
2021/03/16 11:01:47;;;;;;;5.88;3.30;;;6.60;99.90;;;;;;5028599;28;20229;-70
2021/03/16 11:04:14;;;;;;;5.03;3.35;;;6.90;99.90;;;;;;5028849;28;20202;-70
2021/03/16 11:06:40;;;;;;;6.13;3.40;;;7.00;99.90;;;;;;5028664;28;20216;-70
2021/03/16 11:09:06;;;;;;;7.95;3.20;;;7.00;99.90;;;;;;5028186;28;20202;-70
2021/03/16 11:11:34;;;;;;;6.85;3.75;;;7.20;99.90;;;;;;5028153;28;20221;-70
2021/03/16 11:14:00;;;;;;;5.07;3.30;;;7.40;99.90;;;;;;5028590;28;20721;-69
2021/03/16 11:16:26;;;;;;;6.00;2.80;;;7.30;99.90;;;;;;5028512;28;20206;-69
2021/03/16 11:18:52;;;;;;;6.07;3.38;;;7.00;99.90;;;;;;5028183;28;20206;-70
2021/03/16 11:21:18;;;;;;;6.53;3.15;;;6.90;99.90;;;;;;5028602;28;20312;-70
2021/03/16 11:23:45;;;;;;;5.68;3.72;;;6.80;99.90;;;;;;5028123;28;20460;-70
2021/03/16 11:26:11;;;;;;;5.00;2.70;;;6.80;99.90;;;;;;5028449;28;20279;-70
2021/03/16 11:28:38;;;;;;;6.07;2.92;;;6.80;99.90;;;;;;5027677;28;20208;-70
2021/03/16 11:31:04;;;;;;;8.63;3.42;;;6.90;99.90;;;;;;5028517;28;20228;-70
2021/03/16 11:33:30;;;;;;;6.03;2.75;;;6.90;99.90;;;;;;5028189;28;20236;-70
2021/03/16 11:35:57;;;;;;;7.30;2.90;;;6.90;99.90;;;;;;5028014;28;20263;-70
2021/03/16 11:38:23;;;;;;;5.28;2.60;;;6.70;99.90;;;;;;5028142;28;20612;-70
2021/03/16 11:40:50;;;;;;;6.75;3.40;;;6.40;99.90;;;;;;5027275;28;20241;-70
2021/03/16 11:43:16;;;;;;;5.45;3.10;;;6.30;99.90;;;;;;5028502;28;20628;-70
2021/03/16 11:45:44;;;;;;;6.25;2.92;;;6.20;99.90;;;;;;5028069;28;20704;-70
2021/03/16 11:48:11;;;;;;;6.20;3.25;;;6.00;99.90;;;;;;5028390;28;20217;-70
2021/03/16 11:50:37;;;;;;;6.28;3.00;;;6.00;99.90;;;;;;5027111;28;20218;-70
2021/03/16 11:53:04;;;;;;;7.00;3.63;;;6.00;99.90;;;;;;5028431;28;20198;-70
2021/03/16 11:55:30;;;;;;;9.07;4.15;;;5.90;99.90;;;;;;5028055;28;20230;-70
2021/03/16 11:57:56;;;;;;;5.80;3.17;;;5.90;99.90;;;;;;5027945;28;20209;-70
2021/03/16 12:00:23;;;;;;;4.57;2.63;;;5.90;99.90;;;;;;5027109;28;20205;-70
2021/03/16 12:02:50;;;;;;;6.63;3.20;;;5.90;99.90;;;;;;5028020;28;20681;-70
2021/03/16 12:05:16;;;;;;;5.60;2.60;;;5.90;99.90;;;;;;5028330;28;20271;-68
2021/03/16 12:07:42;;;;;;;4.95;2.95;;;6.00;99.90;;;;;;5028197;28;20292;-70
2021/03/16 12:10:10;;;;;;;5.25;2.65;;;6.00;99.90;;;;;;5030111;28;20576;-70
2021/03/16 12:12:37;;;;;;;5.00;2.25;;;6.00;99.90;;;;;;5031449;28;20225;-70
2021/03/16 12:15:06;;;;;;;6.13;2.75;;;6.20;99.90;;;;;;5031917;28;20256;-69
2021/03/16 12:17:32;;;;;;;4.35;3.10;;;6.40;99.90;;;;;;5032059;28;20256;-70
2021/03/16 12:19:59;;;;;;;6.07;2.60;;;6.80;99.90;;;;;;5031511;28;20673;-70
2021/03/16 12:22:25;;;;;;;4.80;3.20;;;7.00;99.90;;;;;;5031774;28;20657;-70
2021/03/16 12:24:52;;;;;;;5.88;2.60;;;7.40;99.90;;;;;;5031438;28;20255;-70
2021/03/16 12:27:18;;;;;;;6.07;3.60;;;7.70;99.90;;;;;;5031967;28;20202;-70
2021/03/16 12:29:44;;;;;;;4.20;2.55;;;7.90;99.90;;;;;;5031002;28;20208;-70
2021/03/16 12:32:11;;;;;;;3.78;2.70;;;8.10;99.60;;;;;;5031575;28;20233;-70
2021/03/16 12:34:37;;;;;;;6.32;2.80;;;7.90;97.90;;;;;;5031791;28;20222;-70
2021/03/16 12:37:04;;;;;;;3.90;2.53;;;7.80;99.00;;;;;;5031574;28;20571;-70
2021/03/16 12:39:31;;;;;;;5.93;2.55;;;7.70;99.50;;;;;;5030917;28;20209;-70
2021/03/16 12:41:57;;;;;;;4.75;2.45;;;7.60;98.20;;;;;;5113810;23;20232;-73
2021/03/16 12:44:23;;;;;;;3.42;2.33;;;7.50;99.60;;;;;;5050781;28;20189;-70
2021/03/16 12:46:49;;;;;;;9.07;4.15;;;7.70;99.10;;;;;;5051385;28;20201;-71
2021/03/16 12:49:16;;;;;;;2.92;2.53;;;7.90;98.20;;;;;;5050047;28;20216;-71
2021/03/16 12:51:42;;;;;;;4.45;2.55;;;8.20;97.30;;;;;;5051000;28;20233;-71
2021/03/16 12:54:09;;;;;;;2.78;2.42;;;8.50;96.90;;;;;;5051323;28;20274;-71
2021/03/16 12:56:35;;;;;;;3.75;2.50;;;8.70;96.80;;;;;;5050816;28;20716;-70
2021/03/16 12:59:02;;;;;;;3.75;2.10;;;8.70;94.10;;;;;;5050594;28;20582;-70
2021/03/16 13:01:28;;;;;;;5.60;2.55;;;8.60;93.20;;;;;;5050463;28;20221;-70